Castaic, CA (91310)

1:09 AM PDT on September 04, 2015 (GMT -0700)
Amberwood Grove Ranch | | Change Station
CLOSE
Current Station
Personal Weather Station
Location: Santa Clarita, CA
Elevation: 1350 ft
Nearby Weather Stations

Elev 1350 ft 34.49 °N, 118.54 °W | Updated 6 minutes ago

Partly Cloudy
Partly Cloudy
58.3 °F
Feels Like 58.3 °F
N
0.0
Wind Variable Wind from SSE
Gusts 0.0 mph

Today
High -- | Low -- °F
--% Chance of Precip.
Yesterday
High -- | Low -- °F
Precip. -- in
6:29 AM 7:16 PM
Waning Gibbous, 62% visible
Pressure 29.85 in
Visibility 10.0 miles
Clouds Overcast 2200 ft
Dew Point 51 °F
Humidity 78%
Rainfall 0.00 in
Snow Depth Not available.
UV 0 out of 12
Pollen 7.80 out of 12
Air Quality Not available.
Flu Activity Not available.
METAR KVNY 040751Z 00000KT 10SM OVC022 18/14 A2987 RMK AO2 SLP106 T01830139 402670183
Pressure 29.85 in
Visibility 10.0 miles
Clouds Overcast 2200 ft
Dew Point 51 °F
Humidity 78%
Rainfall 0.00 in
Snow Depth Not available.
UV 0 out of 12
Pollen 7.80 out of 12
Air Quality Not available.
Flu Activity Not available.
METAR KVNY 040751Z 00000KT 10SM OVC022 18/14 A2987 RMK AO2 SLP106 T01830139 402670183

10-Day Weather Forecast

×

Almanac

Astronomy

Sep. 04, 2015 Rise Set
Actual Time
Civil Twilight
Nautical Twilight
Astronomical Twilight
Moon
Length of Visible Light
Length of Day
Tomorrow will be .
, % of the Moon is Illuminated

Today's Extremes

State Highs State Lows

Community

WunderPhotos

Upload Photos

1,852,141 photos uploaded!

WunderBlogs® & News

Nearby

Air Quality

  Air Quality AQ Index Pollutant
Not available.

Snow Depth

Station Depth Elevation

Earthquake Activity

City Distance Mag. Time & Date
Minimum magnitude displayed is 2.5.

Coastal Water Temperatures

Place Temperature

Stations

Nearby Weather Stations

Station Location Temp. Windchill Dew Point Humidity Wind Precip. Elev Updated Type